Flight Track Log - Related Links

Times and Time Zones

All times are in EDT time to prevent confusion due to time zone crossing. See the FLG3800 flight status page for this flight to view local times or setup timezone preferences in your user account.


Time Position Orientation Groundspeed Altitude Reporting Facility
EDT Latitude Longitude Course Direction KTS MPH feet Rate Location/Type
Sun 08:03:07 AM 42.2053 -85.5389 123° Southeast 156 180 2,200  Level Chicago Center
Sun 08:04:08 AM 42.1767 -85.4800 123° Southeast 186 214 4,100 2,016 Climbing Chicago Center
Sun 08:05:09 AM 42.1633 -85.3842 101° East 248 285 6,300 2,138 Climbing Chicago Center
Sun 08:05:35 AM 42.1533 -85.3397 107° East 224 258 7,200 2,372 Climbing Cleveland Center
Sun 08:06:35 AM 42.1353 -85.2208 102° East 276 318 9,700 1,700 Climbing Cleveland Center
Sun 08:07:35 AM 42.1153 -85.0933 102° East 318 366 10,600 700 Climbing Cleveland Center
Sun 08:08:35 AM 42.0767 -84.9561 111° Southeast 363 418 11,100 250 Climbing Cleveland Center
Sun 08:09:35 AM 42.0364 -84.8053 110° East 402 463 11,100  Level Cleveland Center
Sun 08:10:35 AM 41.9961 -84.6544 110° East 422 486 11,100  Level Cleveland Center
Sun 08:11:16 AM 41.9628 -84.5322 110° East 420 483 11,100  Level Cleveland Center
Sun 08:11:34 AM 41.9514 -84.4978 114° Southeast 421 484 11,100  Level Cleveland Center
Sun 08:12:35 AM 41.9503 -84.3497 91° East 402 463 11,100  Level Cleveland Center
Sun 08:13:35 AM 41.9581 -84.1742 87° East 427 491 11,100 -50 Level Cleveland Center
Sun 08:14:35 AM 41.9608 -84.0153 89° East 422 486 11,000 -50 Descending Cleveland Center
Sun 08:15:35 AM 41.9653 -83.8564 88° East 422 486 11,000  Level Cleveland Center
Sun 08:16:35 AM 42.0211 -83.7278 60° Northeast 385 443 11,000  Level Cleveland Center
Sun 08:17:35 AM 42.0839 -83.6356 47° Northeast 343 395 11,000  Level Cleveland Center
Sun 08:18:17 AM 42.1364 -83.5894 33° Northeast 289 333 11,000  Level FAA TRACON SMA TRACON (SMA)
Sun 08:18:37 AM 42.1578 -83.5753 26° Northeast 282 325 11,000 162 Level FAA TRACON SMA TRACON (SMA)
Sun 08:18:54 AM 42.1783 -83.5614 27° Northeast 272 313 11,100 162 Climbing FAA TRACON SMA TRACON (SMA)
Sun 08:19:14 AM 42.1975 -83.5467 30° Northeast 264 304 11,100 -150 Level FAA TRACON SMA TRACON (SMA)
Sun 08:19:34 AM 42.2217 -83.5261 32° Northeast 266 306 11,000 -750 Descending FAA TRACON SMA TRACON (SMA)
Sun 08:19:54 AM 42.2400 -83.5097 33° Northeast 260 299 10,600 -1,538 Descending FAA TRACON SMA TRACON (SMA)
Sun 08:20:13 AM 42.2589 -83.4936 32° Northeast 261 300 10,000 -1,950 Descending FAA TRACON SMA TRACON (SMA)
Sun 08:20:34 AM 42.2822 -83.4731 33° Northeast 262 302 9,300 -1,902 Descending FAA TRACON SMA TRACON (SMA)
Sun 08:20:54 AM 42.3003 -83.4578 32° Northeast 260 299 8,700 -1,950 Descending FAA TRACON SMA TRACON (SMA)
Sun 08:21:14 AM 42.3233 -83.4375 33° Northeast 256 295 8,000 -1,800 Descending FAA TRACON SMA TRACON (SMA)
Sun 08:21:34 AM 42.3417 -83.4219 32° Northeast 254 292 7,500 -1,650 Descending FAA TRACON SMA TRACON (SMA)
Sun 08:21:54 AM 42.3597 -83.4058 33° Northeast 252 290 6,900 -2,100 Descending FAA TRACON SMA TRACON (SMA)
Sun 08:22:14 AM 42.3822 -83.3864 33° Northeast 252 290 6,100 -1,650 Descending FAA TRACON SMA TRACON (SMA)
Sun 08:22:34 AM 42.4000 -83.3706 33° Northeast 250 288 5,800 -750 Descending FAA TRACON SMA TRACON (SMA)
Sun 08:22:54 AM 42.4164 -83.3564 33° Northeast 214 246 5,600 -1,200 Descending FAA TRACON SMA TRACON (SMA)
Sun 08:23:14 AM 42.4353 -83.3397 33° Northeast 212 244 5,000 -1,800 Descending FAA TRACON SMA TRACON (SMA)
Sun 08:23:34 AM 42.4456 -83.3175 58° Northeast 236 272 4,400 -1,350 Descending FAA TRACON SMA TRACON (SMA)
Sun 08:23:54 AM 42.4428 -83.2914 98° East 241 277 4,100 -462 Descending FAA TRACON SMA TRACON (SMA)
Sun 08:24:13 AM 42.4272 -83.2686 133° Southeast 222 255 4,100  Level FAA TRACON SMA TRACON (SMA)
Sun 08:24:34 AM 42.4111 -83.2661 173° South 203 234 4,100  Level FAA TRACON SMA TRACON (SMA)
Sun 08:24:54 AM 42.3900 -83.2708 189° South 201 231 4,100 -300 Level FAA TRACON SMA TRACON (SMA)
Sun 08:25:14 AM 42.3706 -83.2756 190° South 200 230 3,900 -600 Descending FAA TRACON SMA TRACON (SMA)
Sun 08:25:34 AM 42.3550 -83.2789 189° South 191 220 3,700 -900 Descending FAA TRACON SMA TRACON (SMA)
Sun 08:25:54 AM 42.3358 -83.2847 193° South 182 209 3,300 -1,050 Descending FAA TRACON SMA TRACON (SMA)
Sun 08:26:14 AM 42.3225 -83.2942 208° Southwest 176 203 3,000 -900 Descending FAA TRACON SMA TRACON (SMA)
Sun 08:26:34 AM 42.3108 -83.3036 211° Southwest 160 184 2,700 -900 Descending FAA TRACON SMA TRACON (SMA)
Sun 08:26:54 AM 42.2967 -83.3150 211° Southwest 153 176 2,400 -750 Descending FAA TRACON SMA TRACON (SMA)
Sun 08:27:14 AM 42.2856 -83.3228 207° Southwest 149 171 2,200 -900 Descending FAA TRACON SMA TRACON (SMA)
Sun 08:27:34 AM 42.2725 -83.3322 208° Southwest 143 165 1,800 -900 Descending FAA TRACON SMA TRACON (SMA)
Sun 08:27:54 AM 42.2631 -83.3394 210° Southwest 140 161 1,600 -600 Descending FAA TRACON SMA TRACON (SMA)

Login

Don't have an account? Register now (free) for customized features, flight alerts, and more!